createdAt,value
2022-09-25T00:00:06.699Z,13.99
2022-09-25T00:01:07.225Z,14.04
2022-09-25T00:02:06.704Z,13.93
2022-09-25T00:03:06.676Z,13.95
2022-09-25T00:04:06.773Z,13.95
2022-09-25T00:05:07.843Z,13.97
2022-09-25T00:06:06.651Z,13.99
2022-09-25T00:07:06.644Z,14.05
2022-09-25T00:08:06.613Z,13.97
2022-09-25T00:09:09.839Z,13.99
2022-09-25T00:10:06.590Z,13.95
2022-09-25T00:11:06.578Z,14.04
2022-09-25T00:12:06.590Z,13.89
2022-09-25T00:13:06.557Z,13.97
2022-09-25T00:14:06.665Z,13.96
2022-09-25T00:15:06.528Z,13.99
2022-09-25T00:16:07.280Z,14.00
2022-09-25T00:17:06.646Z,14.05
2022-09-25T00:18:06.526Z,14.04
2022-09-25T00:19:06.486Z,14.00
2022-09-25T00:20:06.830Z,14.05
2022-09-25T00:21:06.468Z,13.96
2022-09-25T00:22:06.475Z,13.99
2022-09-25T00:23:06.445Z,13.97
2022-09-25T00:24:06.544Z,13.92
2022-09-25T00:25:06.421Z,13.90
2022-09-25T00:26:06.412Z,13.95
2022-09-25T00:27:06.413Z,13.97
2022-09-25T00:28:06.391Z,13.99
2022-09-25T00:29:06.380Z,14.00
2022-09-25T00:30:06.373Z,13.99
2022-09-25T00:31:06.475Z,14.03
2022-09-25T00:32:06.352Z,14.05
2022-09-25T00:33:06.442Z,13.90
2022-09-25T00:34:06.415Z,13.96
2022-09-25T00:35:07.096Z,14.05
2022-09-25T00:36:07.727Z,13.96
2022-09-25T00:37:06.311Z,13.93
2022-09-25T00:38:06.302Z,13.92
2022-09-25T00:39:06.468Z,13.97
2022-09-25T00:40:06.253Z,13.92
2022-09-25T00:41:06.243Z,13.86
2022-09-25T00:42:06.251Z,13.85
2022-09-25T00:43:06.222Z,13.93
2022-09-25T00:44:06.307Z,13.85
2022-09-25T00:45:06.198Z,13.96
2022-09-25T00:46:06.244Z,13.83
2022-09-25T00:47:06.191Z,13.92
2022-09-25T00:48:06.168Z,13.93
2022-09-25T00:49:06.180Z,13.81
2022-09-25T00:50:06.249Z,13.79
2022-09-25T00:51:06.131Z,13.79
2022-09-25T00:52:06.138Z,13.90
2022-09-25T00:53:06.109Z,13.87
2022-09-25T00:54:06.121Z,13.87
2022-09-25T00:55:06.100Z,13.83
2022-09-25T00:56:06.079Z,13.89
2022-09-25T00:57:06.077Z,13.87
2022-09-25T00:58:06.055Z,13.87
2022-09-25T00:59:06.036Z,13.83
2022-09-25T01:00:06.031Z,13.87
2022-09-25T01:01:06.098Z,13.86
2022-09-25T01:02:06.073Z,13.83
2022-09-25T01:03:05.997Z,13.90
2022-09-25T01:04:06.017Z,13.86
2022-09-25T01:05:05.989Z,13.86
2022-09-25T01:06:05.986Z,13.85
2022-09-25T01:07:06.652Z,13.87
2022-09-25T01:08:05.942Z,13.78
2022-09-25T01:09:05.928Z,13.85
2022-09-25T01:10:06.607Z,13.86
2022-09-25T01:11:06.607Z,13.77
2022-09-25T01:12:06.020Z,13.74
2022-09-25T01:13:05.961Z,13.81
2022-09-25T01:14:06.005Z,13.75
2022-09-25T01:15:05.871Z,13.79
2022-09-25T01:16:05.853Z,13.75
2022-09-25T01:17:05.934Z,13.77
2022-09-25T01:18:05.830Z,13.85
2022-09-25T01:19:05.870Z,13.72
2022-09-25T01:20:05.873Z,13.72
2022-09-25T01:21:05.822Z,13.77
2022-09-25T01:22:06.197Z,13.77
2022-09-25T01:23:05.773Z,13.72
2022-09-25T01:24:05.863Z,13.74
2022-09-25T01:25:05.751Z,13.78
2022-09-25T01:26:06.015Z,13.78
2022-09-25T01:27:05.745Z,13.83
2022-09-25T01:28:05.722Z,13.85
2022-09-25T01:29:05.706Z,13.87
2022-09-25T01:30:05.710Z,13.83
2022-09-25T01:31:05.766Z,13.85
2022-09-25T01:32:05.689Z,13.81
2022-09-25T01:33:05.660Z,13.83
2022-09-25T01:34:05.681Z,13.83
2022-09-25T01:35:05.644Z,13.81
2022-09-25T01:36:05.633Z,13.87
2022-09-25T01:37:05.738Z,13.90
2022-09-25T01:38:05.613Z,13.83
2022-09-25T01:39:05.648Z,13.95
2022-09-25T01:40:05.602Z,13.85
2022-09-25T01:41:05.577Z,13.96
2022-09-25T01:42:05.587Z,13.81
2022-09-25T01:43:05.624Z,13.81
2022-09-25T01:44:05.543Z,13.89
2022-09-25T01:45:05.594Z,13.90
2022-09-25T01:46:06.302Z,13.90
2022-09-25T01:47:05.521Z,13.97
2022-09-25T01:48:05.610Z,13.85
2022-09-25T01:49:05.489Z,13.81
2022-09-25T01:50:05.475Z,13.83
2022-09-25T01:51:05.483Z,13.95
2022-09-25T01:52:05.455Z,13.89
2022-09-25T01:53:05.471Z,13.92
2022-09-25T01:54:05.572Z,13.85
2022-09-25T01:55:05.433Z,13.96
2022-09-25T01:56:05.439Z,13.86
2022-09-25T01:57:05.422Z,13.92
2022-09-25T01:58:05.861Z,13.78
2022-09-25T01:59:05.385Z,13.89
2022-09-25T02:00:05.377Z,13.96
2022-09-25T02:01:05.459Z,13.85
2022-09-25T02:02:05.758Z,13.87
2022-09-25T02:03:05.337Z,13.81
2022-09-25T02:04:05.407Z,13.78
2022-09-25T02:05:05.336Z,13.81
2022-09-25T02:06:05.304Z,13.75
2022-09-25T02:07:06.817Z,13.72
2022-09-25T02:08:05.299Z,13.83
2022-09-25T02:09:05.288Z,13.70
2022-09-25T02:10:05.306Z,13.72
2022-09-25T02:11:05.257Z,13.67
2022-09-25T02:12:05.238Z,13.74
2022-09-25T02:13:05.226Z,13.67
2022-09-25T02:14:05.240Z,13.71
2022-09-25T02:15:05.539Z,13.79
2022-09-25T02:16:05.191Z,13.77
2022-09-25T02:17:05.246Z,13.74
2022-09-25T02:18:05.167Z,13.72
2022-09-25T02:19:05.203Z,13.71
2022-09-25T02:20:05.145Z,13.75
2022-09-25T02:21:05.414Z,13.72
2022-09-25T02:22:05.131Z,13.77
2022-09-25T02:23:05.121Z,13.75
2022-09-25T02:24:05.112Z,13.85
2022-09-25T02:25:05.131Z,13.75
2022-09-25T02:26:05.097Z,13.77
2022-09-25T02:27:05.070Z,13.79
2022-09-25T02:28:05.059Z,13.77
2022-09-25T02:29:05.053Z,13.79
2022-09-25T02:30:05.067Z,13.75
2022-09-25T02:31:05.116Z,13.77
2022-09-25T02:32:05.020Z,13.78
2022-09-25T02:33:05.011Z,13.78
2022-09-25T02:34:07.253Z,13.75
2022-09-25T02:35:05.983Z,13.79
2022-09-25T02:36:04.987Z,13.72
2022-09-25T02:37:04.966Z,13.72
2022-09-25T02:38:05.174Z,13.77
2022-09-25T02:39:04.946Z,13.78
2022-09-25T02:40:04.933Z,13.78
2022-09-25T02:41:04.955Z,13.75
2022-09-25T02:42:04.910Z,13.83
2022-09-25T02:43:04.896Z,13.77
2022-09-25T02:44:04.903Z,13.78
2022-09-25T02:45:05.920Z,13.74
2022-09-25T02:46:04.926Z,13.67
2022-09-25T02:47:04.855Z,13.71
2022-09-25T02:48:04.839Z,13.67
2022-09-25T02:49:04.832Z,13.74
2022-09-25T02:50:04.836Z,13.63
2022-09-25T02:51:04.843Z,13.74
2022-09-25T02:52:04.800Z,13.71
2022-09-25T02:53:04.794Z,13.77
2022-09-25T02:54:04.778Z,13.70
2022-09-25T02:55:04.886Z,13.67
2022-09-25T02:56:04.769Z,13.75
2022-09-25T02:57:04.768Z,13.74
2022-09-25T02:58:04.731Z,13.79
2022-09-25T02:59:04.723Z,13.75
2022-09-25T03:00:04.710Z,13.74
2022-09-25T03:01:04.746Z,13.70
2022-09-25T03:02:04.724Z,13.71
2022-09-25T03:03:04.680Z,13.70
2022-09-25T03:04:04.668Z,13.78
2022-09-25T03:05:04.702Z,13.72
2022-09-25T03:06:04.682Z,13.72
2022-09-25T03:07:04.651Z,13.67
2022-09-25T03:08:04.626Z,13.65
2022-09-25T03:09:04.615Z,13.68
2022-09-25T03:10:05.144Z,13.63
2022-09-25T03:11:04.595Z,13.67
2022-09-25T03:12:04.595Z,13.67
2022-09-25T03:13:04.587Z,13.75
2022-09-25T03:14:04.688Z,13.63
2022-09-25T03:15:04.564Z,13.72
2022-09-25T03:16:04.582Z,13.67
2022-09-25T03:17:04.527Z,13.70
2022-09-25T03:18:04.511Z,13.67
2022-09-25T03:19:04.520Z,13.70
2022-09-25T03:20:04.497Z,13.74
2022-09-25T03:21:04.521Z,13.74
2022-09-25T03:22:04.472Z,13.68
2022-09-25T03:23:04.499Z,13.67
2022-09-25T03:24:04.515Z,13.70
2022-09-25T03:25:04.438Z,13.68
2022-09-25T03:26:04.429Z,13.77
2022-09-25T03:27:04.539Z,13.68
2022-09-25T03:28:04.407Z,13.72
2022-09-25T03:29:04.434Z,13.70
2022-09-25T03:30:04.405Z,13.67
2022-09-25T03:31:16.647Z,13.62
2022-09-25T03:32:04.360Z,13.68
2022-09-25T03:33:04.352Z,13.68
2022-09-25T03:34:09.260Z,13.63
2022-09-25T03:35:04.388Z,13.62
2022-09-25T03:36:04.322Z,13.57
2022-09-25T03:37:04.310Z,13.65
2022-09-25T03:38:04.294Z,13.68
2022-09-25T03:39:04.303Z,13.60
2022-09-25T03:40:04.345Z,13.57
2022-09-25T03:41:04.267Z,13.49
2022-09-25T03:42:04.252Z,13.57
2022-09-25T03:43:33.672Z,13.60
2022-09-25T03:44:33.768Z,13.54
2022-09-25T03:45:33.623Z,13.56
2022-09-25T03:46:33.640Z,13.60
2022-09-25T03:47:33.607Z,13.57
2022-09-25T03:48:33.597Z,13.52
2022-09-25T03:49:33.595Z,13.52
2022-09-25T03:50:33.676Z,13.57
2022-09-25T03:51:33.561Z,13.50
2022-09-25T03:52:33.554Z,13.54
2022-09-25T03:53:33.638Z,13.53
2022-09-25T03:54:33.552Z,13.54
2022-09-25T03:55:33.516Z,13.54
2022-09-25T03:56:33.507Z,13.50
2022-09-25T03:57:33.492Z,13.49
2022-09-25T03:58:33.486Z,13.52
2022-09-25T03:59:33.485Z,13.52
2022-09-25T04:00:33.485Z,13.50
2022-09-25T04:01:33.533Z,13.50
2022-09-25T04:02:33.509Z,13.52
2022-09-25T04:03:33.434Z,13.47
2022-09-25T04:04:37.318Z,13.47
2022-09-25T04:05:33.410Z,13.49
2022-09-25T04:06:33.396Z,13.52
2022-09-25T04:07:33.382Z,13.49
2022-09-25T04:08:33.372Z,13.52
2022-09-25T04:09:33.387Z,13.49
2022-09-25T04:10:33.350Z,13.39
2022-09-25T04:11:33.340Z,13.47
2022-09-25T04:12:33.326Z,13.52
2022-09-25T04:13:33.316Z,13.49
2022-09-25T04:14:33.322Z,13.33
2022-09-25T04:15:33.294Z,13.59
2022-09-25T04:16:33.328Z,13.38
2022-09-25T04:17:33.272Z,13.54
2022-09-25T04:18:35.479Z,13.59
2022-09-25T04:19:33.252Z,13.38
2022-09-25T04:20:33.240Z,13.59
2022-09-25T04:21:33.226Z,13.49
2022-09-25T04:22:33.218Z,13.44
2022-09-25T04:23:33.208Z,13.44
2022-09-25T04:24:33.210Z,13.39
2022-09-25T04:25:33.182Z,13.46
2022-09-25T04:26:33.175Z,13.49
2022-09-25T04:27:33.167Z,13.44
2022-09-25T04:28:33.170Z,13.44
2022-09-25T04:29:33.143Z,13.49
2022-09-25T04:30:33.141Z,13.53
2022-09-25T04:31:33.254Z,13.39
2022-09-25T04:32:33.125Z,13.50
2022-09-25T04:33:33.099Z,13.53
2022-09-25T04:34:33.121Z,13.46
2022-09-25T04:35:33.131Z,13.35
2022-09-25T04:36:33.068Z,13.31
2022-09-25T04:37:33.055Z,13.38
2022-09-25T04:38:33.076Z,13.37
2022-09-25T04:39:33.049Z,13.35
2022-09-25T04:40:33.102Z,13.27
2022-09-25T04:41:33.034Z,13.31
2022-09-25T04:42:32.996Z,13.33
2022-09-25T04:43:32.984Z,13.35
2022-09-25T04:44:32.991Z,13.30
2022-09-25T04:45:32.963Z,13.33
2022-09-25T04:46:33.030Z,13.35
2022-09-25T04:47:32.945Z,13.30
2022-09-25T04:48:33.072Z,13.35
2022-09-25T04:49:32.925Z,13.31
2022-09-25T04:50:32.907Z,13.35
2022-09-25T04:51:32.901Z,13.38
2022-09-25T04:52:32.977Z,13.33
2022-09-25T04:53:32.889Z,13.23
2022-09-25T04:54:32.861Z,13.33
2022-09-25T04:55:32.852Z,13.31
2022-09-25T04:56:32.918Z,13.37
2022-09-25T04:57:57.139Z,13.39
2022-09-25T04:58:33.831Z,13.37
2022-09-25T04:59:32.807Z,13.35
2022-09-25T05:00:32.796Z,13.47
2022-09-25T05:01:33.088Z,13.41
2022-09-25T05:02:33.027Z,13.38
2022-09-25T05:03:32.873Z,13.39
2022-09-25T05:04:32.765Z,13.47
2022-09-25T05:05:32.738Z,13.44
2022-09-25T05:06:32.731Z,13.42
2022-09-25T05:07:32.962Z,13.42
2022-09-25T05:08:32.701Z,13.46
2022-09-25T05:09:32.724Z,13.44
2022-09-25T05:10:32.695Z,13.38
2022-09-25T05:11:32.781Z,13.42
2022-09-25T05:12:32.672Z,13.42
2022-09-25T05:13:32.673Z,13.44
2022-09-25T05:14:32.647Z,13.42
2022-09-25T05:15:32.629Z,13.44
2022-09-25T05:16:32.693Z,13.46
2022-09-25T05:17:32.604Z,13.44
2022-09-25T05:18:32.595Z,13.47
2022-09-25T05:19:32.602Z,13.46
2022-09-25T05:20:32.587Z,13.39
2022-09-25T05:21:32.564Z,13.49
2022-09-25T05:22:32.578Z,13.47
2022-09-25T05:23:32.540Z,13.42
2022-09-25T05:24:32.522Z,13.46
2022-09-25T05:25:32.528Z,13.42
2022-09-25T05:26:32.516Z,13.46
2022-09-25T05:27:32.492Z,13.35
2022-09-25T05:28:32.534Z,13.42
2022-09-25T05:29:32.492Z,13.39
2022-09-25T05:30:32.465Z,13.44
2022-09-25T05:31:32.583Z,13.50
2022-09-25T05:32:32.433Z,13.39
2022-09-25T05:33:32.430Z,13.50
2022-09-25T05:34:32.851Z,13.50
2022-09-25T05:35:32.406Z,13.52
2022-09-25T05:36:32.492Z,13.39
2022-09-25T05:37:32.384Z,13.46
2022-09-25T05:38:32.369Z,13.50
2022-09-25T05:39:32.379Z,13.50
2022-09-25T05:40:32.405Z,13.49
2022-09-25T05:41:32.368Z,13.39
2022-09-25T05:42:32.321Z,13.42
2022-09-25T05:43:32.318Z,13.50
2022-09-25T05:44:32.319Z,13.49
2022-09-25T05:45:32.627Z,13.60
2022-09-25T05:46:32.388Z,13.57
2022-09-25T05:47:32.273Z,13.56
2022-09-25T05:48:32.297Z,13.52
2022-09-25T05:49:32.272Z,13.63
2022-09-25T05:50:32.393Z,13.52
2022-09-25T05:51:32.228Z,13.49
2022-09-25T05:52:32.315Z,13.44
2022-09-25T05:53:32.225Z,13.52
2022-09-25T05:54:32.193Z,13.52
2022-09-25T05:55:32.205Z,13.59
2022-09-25T05:56:32.168Z,13.52
2022-09-25T05:57:32.797Z,13.63
2022-09-25T05:58:32.151Z,13.60
2022-09-25T05:59:32.154Z,13.74
2022-09-25T06:00:32.129Z,13.63
2022-09-25T06:01:32.185Z,13.78
2022-09-25T06:02:32.127Z,13.75
2022-09-25T06:03:32.110Z,13.77
2022-09-25T06:04:32.210Z,13.75
2022-09-25T06:05:32.069Z,13.78
2022-09-25T06:06:32.066Z,13.77
2022-09-25T06:07:32.046Z,13.86
2022-09-25T06:08:32.058Z,13.78
2022-09-25T06:09:32.041Z,13.78
2022-09-25T06:10:32.038Z,13.79
2022-09-25T06:11:32.005Z,13.86
2022-09-25T06:12:32.680Z,13.89
2022-09-25T06:13:31.978Z,13.85
2022-09-25T06:14:31.970Z,13.85
2022-09-25T06:15:31.967Z,13.81
2022-09-25T06:16:32.003Z,13.85
2022-09-25T06:17:31.954Z,13.95
2022-09-25T06:18:31.922Z,13.89
2022-09-25T06:19:31.979Z,13.86
2022-09-25T06:20:31.902Z,13.81
2022-09-25T06:21:31.935Z,13.93
2022-09-25T06:22:31.892Z,13.96
2022-09-25T06:23:31.909Z,14.00
2022-09-25T06:24:31.876Z,13.92
2022-09-25T06:25:31.848Z,14.12
2022-09-25T06:26:31.849Z,14.25
2022-09-25T06:27:31.859Z,14.33
2022-09-25T06:28:31.835Z,14.54
2022-09-25T06:29:31.803Z,14.48
2022-09-25T06:30:31.789Z,14.48
2022-09-25T06:31:31.870Z,14.60
2022-09-25T06:32:31.805Z,14.77
2022-09-25T06:33:31.757Z,14.86
2022-09-25T06:34:31.746Z,15.03
2022-09-25T06:35:31.745Z,15.73
2022-09-25T06:36:31.741Z,16.60
2022-09-25T06:37:31.734Z,17.15
2022-09-25T06:38:31.830Z,17.36
2022-09-25T06:39:32.889Z,17.46
2022-09-25T06:40:31.910Z,17.60
2022-09-25T06:41:31.687Z,17.82
2022-09-25T06:42:31.654Z,18.29
2022-09-25T06:43:31.671Z,19.09
2022-09-25T06:44:31.638Z,19.49
2022-09-25T06:45:31.623Z,19.55
2022-09-25T06:46:31.700Z,19.51
2022-09-25T06:47:31.604Z,19.55
2022-09-25T06:48:31.596Z,19.52
2022-09-25T06:49:31.601Z,19.36
2022-09-25T06:50:31.594Z,19.11
2022-09-25T06:51:31.556Z,18.55
2022-09-25T06:52:31.548Z,18.18
2022-09-25T06:53:31.535Z,17.87
2022-09-25T06:54:31.520Z,17.56
2022-09-25T06:55:31.787Z,17.49
2022-09-25T06:56:31.521Z,17.38
2022-09-25T06:57:31.492Z,17.33
2022-09-25T06:58:31.477Z,17.27
2022-09-25T06:59:31.468Z,17.23
2022-09-25T07:00:31.474Z,17.14
2022-09-25T07:01:31.466Z,17.16
2022-09-25T07:02:31.501Z,17.08
2022-09-25T07:03:31.423Z,16.96
2022-09-25T07:04:31.432Z,16.96
2022-09-25T07:05:31.416Z,16.96
2022-09-25T07:06:31.427Z,16.94
2022-09-25T07:07:31.397Z,17.09
2022-09-25T07:08:31.375Z,17.14
2022-09-25T07:09:31.361Z,17.26
2022-09-25T07:10:31.370Z,17.19
2022-09-25T07:11:31.332Z,17.20
2022-09-25T07:12:31.518Z,17.19
2022-09-25T07:13:31.326Z,17.16
2022-09-25T07:14:31.317Z,17.15
2022-09-25T07:15:31.304Z,17.27
2022-09-25T07:16:31.324Z,17.48
2022-09-25T07:17:31.263Z,17.70
2022-09-25T07:18:31.258Z,17.86
2022-09-25T07:19:31.262Z,17.92
2022-09-25T07:20:31.231Z,17.95
2022-09-25T07:21:31.232Z,18.18
2022-09-25T07:22:31.210Z,18.20
2022-09-25T07:23:31.444Z,18.41
2022-09-25T07:24:31.188Z,18.35
2022-09-25T07:25:31.198Z,18.56
2022-09-25T07:26:31.166Z,18.49
2022-09-25T07:27:31.155Z,18.56
2022-09-25T07:28:31.253Z,18.70
2022-09-25T07:29:31.207Z,18.71
2022-09-25T07:30:31.133Z,18.59
2022-09-25T07:31:31.184Z,18.50
2022-09-25T07:32:31.097Z,18.65
2022-09-25T07:33:31.090Z,18.77
2022-09-25T07:34:31.083Z,18.95
2022-09-25T07:35:31.098Z,19.09
2022-09-25T07:36:31.055Z,19.36
2022-09-25T07:37:31.043Z,19.44
2022-09-25T07:38:31.028Z,19.30
2022-09-25T07:39:31.029Z,19.51
2022-09-25T07:40:31.223Z,19.85
2022-09-25T07:41:30.997Z,19.92
2022-09-25T07:42:31.008Z,20.37
2022-09-25T07:43:30.992Z,21.11
2022-09-25T07:44:37.852Z,21.54
2022-09-25T07:45:31.972Z,22.23
2022-09-25T07:46:31.057Z,22.69
2022-09-25T07:47:30.928Z,23.39
2022-09-25T07:48:30.917Z,23.83
2022-09-25T07:49:30.921Z,23.66
2022-09-25T07:50:30.913Z,23.23
2022-09-25T07:51:30.885Z,22.96
2022-09-25T07:52:30.873Z,22.41
2022-09-25T07:53:30.868Z,22.07
2022-09-25T07:54:30.851Z,22.08
2022-09-25T07:55:30.882Z,21.62
2022-09-25T07:56:30.835Z,21.42
2022-09-25T07:57:30.905Z,20.97
2022-09-25T07:58:30.808Z,20.62
2022-09-25T07:59:30.801Z,20.60
2022-09-25T08:00:30.820Z,20.52
2022-09-25T08:01:30.852Z,20.37
2022-09-25T08:02:30.779Z,20.52
2022-09-25T08:03:30.801Z,20.51
2022-09-25T08:04:30.742Z,20.39
2022-09-25T08:05:30.731Z,20.26
2022-09-25T08:06:30.734Z,20.10
2022-09-25T08:07:30.711Z,20.09
2022-09-25T08:08:30.699Z,20.07
2022-09-25T08:09:30.683Z,20.26
2022-09-25T08:10:30.679Z,20.32
2022-09-25T08:11:30.684Z,20.51
2022-09-25T08:12:30.650Z,20.92
2022-09-25T08:13:30.644Z,21.29
2022-09-25T08:14:30.636Z,21.77
2022-09-25T08:15:30.670Z,22.17
2022-09-25T08:16:30.623Z,22.45
2022-09-25T08:17:30.627Z,22.80
2022-09-25T08:18:30.585Z,22.83
2022-09-25T08:19:30.575Z,22.94
2022-09-25T08:20:30.724Z,22.76
2022-09-25T08:21:30.606Z,22.10
2022-09-25T08:22:30.543Z,21.60
2022-09-25T08:23:30.527Z,21.32
2022-09-25T08:24:30.525Z,21.15
2022-09-25T08:25:30.531Z,20.90
2022-09-25T08:26:30.496Z,20.82
2022-09-25T08:27:30.483Z,20.80
2022-09-25T08:28:30.478Z,20.88
2022-09-25T08:29:30.461Z,20.99
2022-09-25T08:30:31.005Z,20.96
2022-09-25T08:31:30.516Z,21.36
2022-09-25T08:32:30.450Z,22.30
2022-09-25T08:33:30.447Z,22.91
2022-09-25T08:34:43.463Z,23.03
2022-09-25T08:35:31.410Z,22.60
2022-09-25T08:36:30.391Z,22.28
2022-09-25T08:37:30.383Z,21.83
2022-09-25T08:38:30.362Z,21.32
2022-09-25T08:39:30.361Z,21.02
2022-09-25T08:40:30.450Z,20.80
2022-09-25T08:41:30.524Z,20.69
2022-09-25T08:42:30.320Z,20.43
2022-09-25T08:43:30.305Z,20.18
2022-09-25T08:44:30.295Z,20.04
2022-09-25T08:45:30.287Z,19.84
2022-09-25T08:46:30.353Z,19.85
2022-09-25T08:47:30.265Z,19.71
2022-09-25T08:48:30.271Z,19.49
2022-09-25T08:49:30.241Z,19.31
2022-09-25T08:50:30.283Z,19.40
2022-09-25T08:51:30.235Z,19.34
2022-09-25T08:52:30.220Z,19.39
2022-09-25T08:53:30.194Z,19.47
2022-09-25T08:54:30.212Z,19.52
2022-09-25T08:55:30.173Z,19.52
2022-09-25T08:56:30.166Z,19.41
2022-09-25T08:57:30.169Z,19.44
2022-09-25T08:58:30.140Z,19.51
2022-09-25T08:59:30.128Z,19.62
2022-09-25T09:00:30.157Z,19.63
2022-09-25T09:01:30.167Z,19.62
2022-09-25T09:02:30.135Z,19.47
2022-09-25T09:03:30.112Z,19.34
2022-09-25T09:04:30.095Z,19.39
2022-09-25T09:05:30.103Z,19.41
2022-09-25T09:06:30.052Z,19.51
2022-09-25T09:07:30.043Z,19.76
2022-09-25T09:08:30.029Z,19.94
2022-09-25T09:09:30.048Z,20.22
2022-09-25T09:10:30.058Z,20.40
2022-09-25T09:11:30.014Z,20.69
2022-09-25T09:12:30.006Z,20.80
2022-09-25T09:13:29.975Z,20.81
2022-09-25T09:14:29.963Z,21.05
2022-09-25T09:15:29.993Z,21.21
2022-09-25T09:16:29.945Z,21.33
2022-09-25T09:17:29.947Z,21.60
2022-09-25T09:18:29.916Z,21.69
2022-09-25T09:19:29.907Z,21.93
2022-09-25T09:20:30.019Z,22.20
2022-09-25T09:21:29.882Z,22.76
2022-09-25T09:22:29.938Z,23.40
2022-09-25T09:23:29.861Z,24.63
2022-09-25T09:24:29.872Z,25.95
2022-09-25T09:25:29.839Z,27.52
2022-09-25T09:26:29.902Z,28.75
2022-09-25T09:27:29.826Z,29.50
2022-09-25T09:28:29.829Z,29.69
2022-09-25T09:29:29.800Z,29.60
2022-09-25T09:30:30.586Z,29.42
2022-09-25T09:32:50.398Z,28.04
2022-09-25T09:33:50.380Z,27.44
2022-09-25T09:35:08.848Z,27.17
2022-09-25T09:35:51.472Z,26.95
2022-09-25T09:36:50.386Z,26.78
2022-09-25T09:37:50.344Z,26.53
2022-09-25T09:38:50.320Z,26.33
2022-09-25T09:39:50.586Z,26.15
2022-09-25T09:40:50.322Z,25.72
2022-09-25T09:41:50.293Z,24.65
2022-09-25T09:42:50.288Z,24.18
2022-09-25T09:43:56.472Z,24.06
2022-09-25T09:44:51.261Z,23.93
2022-09-25T09:45:50.337Z,23.99
2022-09-25T09:46:50.238Z,24.14
2022-09-25T09:47:50.251Z,24.29
2022-09-25T09:48:50.215Z,24.18
2022-09-25T09:49:50.199Z,24.32
2022-09-25T09:50:52.865Z,24.47
2022-09-25T09:51:50.206Z,24.68
2022-09-25T09:52:56.882Z,24.80
2022-09-25T09:53:50.155Z,24.91
2022-09-25T09:54:50.186Z,25.13
2022-09-25T09:55:50.138Z,25.60
2022-09-25T09:56:50.602Z,25.47
2022-09-25T09:57:50.111Z,25.25
2022-09-25T09:58:50.119Z,25.10
2022-09-25T09:59:50.094Z,25.03
2022-09-25T10:00:50.091Z,25.40
2022-09-25T10:01:50.253Z,25.66
2022-09-25T10:02:50.303Z,25.84
2022-09-25T10:03:50.049Z,25.84
2022-09-25T10:04:50.037Z,26.31
2022-09-25T10:05:51.051Z,27.20
2022-09-25T10:06:50.037Z,27.95
2022-09-25T10:07:50.022Z,28.29
2022-09-25T10:08:49.996Z,28.39
2022-09-25T10:09:50.025Z,28.37
2022-09-25T10:10:51.057Z,28.51
2022-09-25T10:11:50.223Z,28.41
2022-09-25T10:12:49.949Z,27.95
2022-09-25T10:13:50.066Z,27.87
2022-09-25T10:14:49.930Z,27.42
2022-09-25T10:15:50.626Z,27.18
2022-09-25T10:16:49.910Z,26.92
2022-09-25T10:17:49.893Z,26.74
2022-09-25T10:18:49.898Z,26.81
2022-09-25T10:19:49.901Z,27.10
2022-09-25T10:20:49.894Z,27.35
2022-09-25T10:21:49.855Z,27.44
2022-09-25T10:22:49.844Z,28.01
2022-09-25T10:23:49.861Z,27.63
2022-09-25T10:24:49.931Z,27.11
2022-09-25T10:25:55.119Z,26.63
2022-09-25T10:26:50.799Z,26.29
2022-09-25T10:27:49.799Z,26.10
2022-09-25T10:28:49.981Z,26.16
2022-09-25T10:29:49.793Z,26.38
2022-09-25T10:30:49.828Z,26.47
2022-09-25T10:31:49.746Z,26.74
2022-09-25T10:32:54.953Z,27.44
2022-09-25T10:33:50.725Z,28.54
2022-09-25T10:34:49.726Z,28.88
2022-09-25T10:35:49.712Z,29.38
2022-09-25T10:36:49.697Z,29.72
2022-09-25T10:37:49.682Z,30.15
2022-09-25T10:38:53.388Z,30.40
2022-09-25T10:39:51.105Z,30.57
2022-09-25T10:40:49.708Z,30.55
2022-09-25T10:41:49.640Z,29.78
2022-09-25T10:42:49.631Z,29.97
2022-09-25T10:43:49.813Z,30.44
2022-09-25T10:44:52.870Z,30.78
2022-09-25T10:45:50.617Z,30.57
2022-09-25T10:46:49.583Z,30.43
2022-09-25T10:47:49.644Z,30.19
2022-09-25T10:48:49.584Z,30.25
2022-09-25T10:49:49.577Z,30.44
2022-09-25T10:50:49.545Z,30.66
2022-09-25T10:51:49.537Z,30.68
2022-09-25T10:52:49.528Z,30.81
2022-09-25T10:53:49.532Z,30.90
2022-09-25T10:54:49.531Z,30.94
2022-09-25T10:55:49.524Z,30.97
2022-09-25T10:56:49.480Z,30.70
2022-09-25T10:57:49.469Z,31.06
2022-09-25T10:58:50.099Z,31.12
2022-09-25T10:59:49.468Z,31.14
2022-09-25T11:00:49.440Z,31.42
2022-09-25T11:01:49.531Z,31.74
2022-09-25T11:02:50.195Z,31.37
2022-09-25T11:03:49.408Z,30.81
2022-09-25T11:04:49.411Z,30.55
2022-09-25T11:05:49.387Z,30.03
2022-09-25T11:06:49.381Z,29.98
2022-09-25T11:07:49.369Z,30.05
2022-09-25T11:08:49.394Z,30.09
2022-09-25T11:09:49.351Z,29.94
2022-09-25T11:10:49.342Z,29.20
2022-09-25T11:11:49.338Z,29.08
2022-09-25T11:12:49.411Z,29.51
2022-09-25T11:13:49.305Z,29.69
2022-09-25T11:14:49.305Z,30.10
2022-09-25T11:15:49.335Z,30.81
2022-09-25T11:16:49.353Z,31.34
2022-09-25T11:17:50.112Z,31.80
2022-09-25T11:18:49.250Z,32.07
2022-09-25T11:19:49.666Z,31.84
2022-09-25T11:20:49.233Z,31.89
2022-09-25T11:21:49.639Z,31.66
2022-09-25T11:22:49.210Z,31.47
2022-09-25T11:23:49.198Z,30.87
2022-09-25T11:24:50.134Z,30.35
2022-09-25T11:25:49.200Z,29.76
2022-09-25T11:26:49.183Z,29.82
2022-09-25T11:27:49.210Z,29.91
2022-09-25T11:28:49.155Z,30.08
2022-09-25T11:29:49.136Z,29.44
2022-09-25T11:30:50.256Z,29.12
2022-09-25T11:31:49.613Z,29.36
2022-09-25T11:32:52.666Z,29.47
2022-09-25T11:33:49.160Z,29.71
2022-09-25T11:34:49.194Z,29.98
2022-09-25T11:35:50.115Z,30.18
2022-09-25T11:36:49.091Z,30.00
2022-09-25T11:37:49.070Z,29.54
2022-09-25T11:38:49.084Z,29.22
2022-09-25T11:39:49.188Z,28.81
2022-09-25T11:40:49.628Z,28.49
2022-09-25T11:41:49.011Z,28.08
2022-09-25T11:42:49.015Z,27.63
2022-09-25T11:43:49.110Z,27.30
2022-09-25T11:44:49.032Z,27.21
2022-09-25T11:45:49.174Z,27.22
2022-09-25T11:46:48.956Z,26.92
2022-09-25T11:47:48.949Z,26.62
2022-09-25T11:48:50.480Z,26.28
2022-09-25T11:49:48.931Z,26.13
2022-09-25T11:50:48.916Z,25.96
2022-09-25T11:51:48.952Z,25.77
2022-09-25T11:52:48.891Z,25.60
2022-09-25T11:53:50.850Z,25.38
2022-09-25T11:54:48.869Z,25.26
2022-09-25T11:55:49.807Z,25.08
2022-09-25T11:56:48.850Z,25.04
2022-09-25T11:57:48.846Z,24.89
2022-09-25T11:58:50.188Z,25.17
2022-09-25T11:59:48.833Z,25.21
2022-09-25T12:00:48.861Z,25.14
2022-09-25T12:01:48.854Z,25.22
2022-09-25T12:02:48.885Z,25.11
2022-09-25T12:03:48.774Z,24.80
2022-09-25T12:04:48.760Z,24.40
2022-09-25T12:05:48.749Z,24.32
2022-09-25T12:06:48.745Z,24.17
2022-09-25T12:07:48.728Z,24.03
2022-09-25T12:08:49.180Z,23.91
2022-09-25T12:09:48.707Z,23.83
2022-09-25T12:10:48.701Z,23.66
2022-09-25T12:11:48.708Z,23.65
2022-09-25T12:12:49.140Z,23.59
2022-09-25T12:13:48.665Z,23.41
2022-09-25T12:14:48.716Z,23.25
2022-09-25T12:15:48.696Z,23.25
2022-09-25T12:16:50.352Z,23.21
2022-09-25T12:17:48.634Z,23.10
2022-09-25T12:18:48.609Z,23.10
2022-09-25T12:19:48.617Z,23.05
2022-09-25T12:20:48.589Z,23.15
2022-09-25T12:21:48.581Z,23.34
2022-09-25T12:22:48.573Z,23.63
2022-09-25T12:23:48.559Z,24.16
2022-09-25T12:24:48.561Z,24.78
2022-09-25T12:25:48.534Z,25.22
2022-09-25T12:26:48.524Z,25.83
2022-09-25T12:27:48.824Z,25.99
2022-09-25T12:28:48.506Z,26.03
2022-09-25T12:29:48.510Z,26.07
2022-09-25T12:30:48.576Z,25.95
2022-09-25T12:31:48.571Z,25.65
2022-09-25T12:32:48.457Z,25.77
2022-09-25T12:33:48.448Z,26.00
2022-09-25T12:34:48.660Z,26.31
2022-09-25T12:35:48.427Z,26.59
2022-09-25T12:36:48.416Z,26.75
2022-09-25T12:37:48.411Z,26.89
2022-09-25T12:38:48.398Z,27.11
2022-09-25T12:39:48.838Z,27.21
2022-09-25T12:40:48.550Z,27.22
2022-09-25T12:41:48.387Z,27.18
2022-09-25T12:42:48.438Z,27.00
2022-09-25T12:43:48.361Z,26.84
2022-09-25T12:44:48.343Z,26.70
2022-09-25T12:45:48.371Z,26.23
2022-09-25T12:46:48.374Z,26.15
2022-09-25T12:47:48.408Z,26.19
2022-09-25T12:48:49.183Z,26.19
2022-09-25T12:49:48.292Z,26.03
2022-09-25T12:50:48.264Z,25.68
2022-09-25T12:51:48.260Z,25.35
2022-09-25T12:52:48.248Z,25.22
2022-09-25T12:53:48.243Z,25.31